createdAt,value
2019-03-24T00:00:11.003Z,1024.88
2019-03-24T00:01:10.995Z,1024.90
2019-03-24T00:02:11.017Z,1024.93
2019-03-24T00:03:11.033Z,1024.87
2019-03-24T00:04:10.974Z,1024.86
2019-03-24T00:05:10.969Z,1024.93
2019-03-24T00:06:10.960Z,1024.85
2019-03-24T00:07:10.952Z,1024.90
2019-03-24T00:08:10.946Z,1024.86
2019-03-24T00:09:10.937Z,1024.83
2019-03-24T00:10:10.931Z,1024.87
2019-03-24T00:11:10.926Z,1024.83
2019-03-24T00:12:10.917Z,1024.86
2019-03-24T00:13:10.917Z,1024.87
2019-03-24T00:14:10.905Z,1024.88
2019-03-24T00:15:10.894Z,1024.87
2019-03-24T00:16:10.890Z,1024.89
2019-03-24T00:17:10.878Z,1024.86
2019-03-24T00:18:10.893Z,1024.87
2019-03-24T00:19:10.868Z,1024.89
2019-03-24T00:20:10.859Z,1024.89
2019-03-24T00:21:10.860Z,1024.91
2019-03-24T00:22:10.845Z,1024.88
2019-03-24T00:23:10.843Z,1024.86
2019-03-24T00:24:10.832Z,1024.90
2019-03-24T00:25:10.945Z,1024.89
2019-03-24T00:26:10.817Z,1024.93
2019-03-24T00:27:10.810Z,1024.89
2019-03-24T00:28:10.799Z,1024.95
2019-03-24T00:29:10.798Z,1024.95
2019-03-24T00:30:10.788Z,1024.92
2019-03-24T00:31:10.782Z,1024.92
2019-03-24T00:32:10.775Z,1024.91
2019-03-24T00:33:10.810Z,1024.90
2019-03-24T00:34:10.789Z,1024.92
2019-03-24T00:35:10.754Z,1024.89
2019-03-24T00:36:10.786Z,1024.86
2019-03-24T00:37:10.738Z,1024.88
2019-03-24T00:38:10.731Z,1024.91
2019-03-24T00:39:10.725Z,1024.89
2019-03-24T00:40:10.717Z,1024.89
2019-03-24T00:41:10.709Z,1024.87
2019-03-24T00:42:10.704Z,1024.94
2019-03-24T00:43:10.695Z,1024.89
2019-03-24T00:44:10.686Z,1024.91
2019-03-24T00:45:10.680Z,1024.91
2019-03-24T00:46:10.677Z,1024.89
2019-03-24T00:47:10.671Z,1024.92
2019-03-24T00:48:10.658Z,1024.95
2019-03-24T00:49:10.655Z,1024.95
2019-03-24T00:50:10.644Z,1024.95
2019-03-24T00:51:10.638Z,1024.94
2019-03-24T00:52:10.630Z,1024.99
2019-03-24T00:53:10.621Z,1025.00
2019-03-24T00:54:10.613Z,1024.98
2019-03-24T00:55:10.607Z,1025.02
2019-03-24T00:56:10.597Z,1025.02
2019-03-24T00:57:10.591Z,1025.00
2019-03-24T00:58:10.584Z,1025.01
2019-03-24T00:59:10.577Z,1025.03
2019-03-24T01:00:10.598Z,1024.99
2019-03-24T01:01:10.565Z,1024.98
2019-03-24T01:02:10.555Z,1024.95
2019-03-24T01:03:10.547Z,1024.92
2019-03-24T01:04:10.540Z,1024.90
2019-03-24T01:05:10.533Z,1024.94
2019-03-24T01:06:10.525Z,1024.90
2019-03-24T01:07:10.519Z,1024.91
2019-03-24T01:08:10.510Z,1024.92
2019-03-24T01:09:10.504Z,1024.91
2019-03-24T01:10:10.497Z,1024.91
2019-03-24T01:11:10.488Z,1024.91
2019-03-24T01:12:10.479Z,1024.94
2019-03-24T01:13:10.473Z,1024.91
2019-03-24T01:14:10.465Z,1024.92
2019-03-24T01:15:10.457Z,1024.86
2019-03-24T01:16:10.450Z,1024.86
2019-03-24T01:17:10.441Z,1024.87
2019-03-24T01:18:10.436Z,1024.81
2019-03-24T01:19:10.428Z,1024.82
2019-03-24T01:20:10.423Z,1024.79
2019-03-24T01:21:10.410Z,1024.76
2019-03-24T01:22:10.404Z,1024.77
2019-03-24T01:23:10.395Z,1024.80
2019-03-24T01:24:10.388Z,1024.78
2019-03-24T01:25:10.379Z,1024.76
2019-03-24T01:26:10.373Z,1024.73
2019-03-24T01:27:10.367Z,1024.75
2019-03-24T01:28:10.355Z,1024.78
2019-03-24T01:29:10.354Z,1024.77
2019-03-24T01:30:10.346Z,1024.71
2019-03-24T01:31:10.332Z,1024.77
2019-03-24T01:32:10.323Z,1024.75
2019-03-24T01:33:10.322Z,1024.76
2019-03-24T01:34:10.314Z,1024.74
2019-03-24T01:35:10.303Z,1024.73
2019-03-24T01:36:10.291Z,1024.71
2019-03-24T01:37:10.285Z,1024.72
2019-03-24T01:38:10.282Z,1024.73
2019-03-24T01:39:10.279Z,1024.71
2019-03-24T01:40:10.263Z,1024.68
2019-03-24T01:41:10.254Z,1024.66
2019-03-24T01:42:10.246Z,1024.71
2019-03-24T01:43:10.239Z,1024.70
2019-03-24T01:44:10.231Z,1024.72
2019-03-24T01:45:10.223Z,1024.70
2019-03-24T01:46:10.213Z,1024.69
2019-03-24T01:47:10.207Z,1024.71
2019-03-24T01:48:10.198Z,1024.67
2019-03-24T01:49:10.932Z,1024.69
2019-03-24T01:50:10.183Z,1024.65
2019-03-24T01:51:10.176Z,1024.64
2019-03-24T01:52:10.168Z,1024.65
2019-03-24T01:53:10.160Z,1024.62
2019-03-24T01:54:10.148Z,1024.63
2019-03-24T01:55:10.142Z,1024.63
2019-03-24T01:56:10.135Z,1024.59
2019-03-24T01:57:10.126Z,1024.60
2019-03-24T01:58:10.119Z,1024.60
2019-03-24T01:59:10.108Z,1024.60
2019-03-24T02:00:10.101Z,1024.57
2019-03-24T02:01:10.097Z,1024.61
2019-03-24T02:02:10.085Z,1024.57
2019-03-24T02:03:10.090Z,1024.54
2019-03-24T02:04:10.071Z,1024.53
2019-03-24T02:05:10.065Z,1024.52
2019-03-24T02:06:10.053Z,1024.49
2019-03-24T02:07:10.048Z,1024.48
2019-03-24T02:08:10.038Z,1024.48
2019-03-24T02:09:10.033Z,1024.48
2019-03-24T02:10:10.020Z,1024.51
2019-03-24T02:11:10.015Z,1024.50
2019-03-24T02:12:10.005Z,1024.51
2019-03-24T02:13:10.045Z,1024.53
2019-03-24T02:14:10.053Z,1024.53
2019-03-24T02:15:10.056Z,1024.51
2019-03-24T02:16:09.974Z,1024.53
2019-03-24T02:17:09.965Z,1024.59
2019-03-24T02:18:09.957Z,1024.54
2019-03-24T02:19:09.950Z,1024.58
2019-03-24T02:20:09.939Z,1024.58
2019-03-24T02:21:09.935Z,1024.58
2019-03-24T02:22:09.928Z,1024.64
2019-03-24T02:23:09.918Z,1024.58
2019-03-24T02:24:09.907Z,1024.60
2019-03-24T02:25:09.900Z,1024.56
2019-03-24T02:26:09.892Z,1024.60
2019-03-24T02:27:09.884Z,1024.55
2019-03-24T02:28:09.878Z,1024.56
2019-03-24T02:29:09.871Z,1024.55
2019-03-24T02:30:09.879Z,1024.52
2019-03-24T02:31:09.857Z,1024.55
2019-03-24T02:32:09.843Z,1024.54
2019-03-24T02:33:09.838Z,1024.54
2019-03-24T02:34:09.830Z,1024.52
2019-03-24T02:35:09.818Z,1024.54
2019-03-24T02:36:09.812Z,1024.56
2019-03-24T02:37:09.799Z,1024.57
2019-03-24T02:38:09.795Z,1024.56
2019-03-24T02:39:09.793Z,1024.54
2019-03-24T02:40:09.777Z,1024.50
2019-03-24T02:41:09.771Z,1024.49
2019-03-24T02:42:09.761Z,1024.46
2019-03-24T02:43:09.771Z,1024.44
2019-03-24T02:44:09.745Z,1024.44
2019-03-24T02:45:09.741Z,1024.41
2019-03-24T02:46:23.167Z,1024.40
2019-03-24T02:47:09.745Z,1024.35
2019-03-24T02:48:09.711Z,1024.35
2019-03-24T02:49:09.704Z,1024.32
2019-03-24T02:50:09.694Z,1024.32
2019-03-24T02:51:09.688Z,1024.31
2019-03-24T02:52:09.677Z,1024.32
2019-03-24T02:53:09.673Z,1024.31
2019-03-24T02:54:09.661Z,1024.28
2019-03-24T02:55:09.654Z,1024.31
2019-03-24T02:56:09.645Z,1024.30
2019-03-24T02:57:09.635Z,1024.29
2019-03-24T02:58:09.629Z,1024.25
2019-03-24T02:59:09.619Z,1024.29
2019-03-24T03:00:09.614Z,1024.29
2019-03-24T03:01:09.604Z,1024.28
2019-03-24T03:02:09.605Z,1024.30
2019-03-24T03:03:09.586Z,1024.32
2019-03-24T03:04:09.576Z,1024.29
2019-03-24T03:05:09.575Z,1024.29
2019-03-24T03:06:09.561Z,1024.33
2019-03-24T03:07:09.616Z,1024.34
2019-03-24T03:08:09.544Z,1024.34
2019-03-24T03:09:09.538Z,1024.36
2019-03-24T03:10:09.530Z,1024.36
2019-03-24T03:11:09.525Z,1024.39
2019-03-24T03:12:09.515Z,1024.40
2019-03-24T03:13:09.502Z,1024.41
2019-03-24T03:14:09.499Z,1024.39
2019-03-24T03:15:09.485Z,1024.36
2019-03-24T03:16:09.478Z,1024.39
2019-03-24T03:17:09.476Z,1024.39
2019-03-24T03:18:09.461Z,1024.40
2019-03-24T03:19:09.455Z,1024.39
2019-03-24T03:20:09.445Z,1024.37
2019-03-24T03:21:09.438Z,1024.39
2019-03-24T03:22:09.428Z,1024.39
2019-03-24T03:23:09.419Z,1024.33
2019-03-24T03:24:09.416Z,1024.33
2019-03-24T03:25:09.409Z,1024.31
2019-03-24T03:26:09.397Z,1024.31
2019-03-24T03:27:09.390Z,1024.31
2019-03-24T03:28:09.378Z,1024.29
2019-03-24T03:29:09.369Z,1024.30
2019-03-24T03:30:09.366Z,1024.31
2019-03-24T03:31:09.350Z,1024.31
2019-03-24T03:32:09.348Z,1024.32
2019-03-24T03:33:09.351Z,1024.34
2019-03-24T03:34:09.327Z,1024.36
2019-03-24T03:35:09.325Z,1024.34
2019-03-24T03:36:09.314Z,1024.37
2019-03-24T03:37:09.308Z,1024.36
2019-03-24T03:38:09.296Z,1024.36
2019-03-24T03:39:09.412Z,1024.37
2019-03-24T03:40:09.273Z,1024.35
2019-03-24T03:41:09.265Z,1024.37
2019-03-24T03:42:09.259Z,1024.35
2019-03-24T03:43:09.255Z,1024.34
2019-03-24T03:44:09.242Z,1024.34
2019-03-24T03:45:09.233Z,1024.30
2019-03-24T03:46:09.225Z,1024.30
2019-03-24T03:47:09.215Z,1024.27
2019-03-24T03:48:09.207Z,1024.24
2019-03-24T03:49:09.202Z,1024.27
2019-03-24T03:50:09.206Z,1024.24
2019-03-24T03:51:09.185Z,1024.25
2019-03-24T03:52:09.173Z,1024.25
2019-03-24T03:53:09.165Z,1024.24
2019-03-24T03:54:09.184Z,1024.24
2019-03-24T03:55:09.149Z,1024.22
2019-03-24T03:56:09.146Z,1024.24
2019-03-24T03:57:09.129Z,1024.25
2019-03-24T03:58:09.121Z,1024.22
2019-03-24T03:59:09.119Z,1024.27
2019-03-24T04:00:09.107Z,1024.25
2019-03-24T04:01:09.094Z,1024.29
2019-03-24T04:02:09.084Z,1024.33
2019-03-24T04:03:09.083Z,1024.31
2019-03-24T04:04:09.067Z,1024.33
2019-03-24T04:05:09.059Z,1024.32
2019-03-24T04:06:09.052Z,1024.29
2019-03-24T04:07:09.044Z,1024.29
2019-03-24T04:08:09.031Z,1024.31
2019-03-24T04:09:09.023Z,1024.26
2019-03-24T04:10:09.013Z,1024.26
2019-03-24T04:11:09.005Z,1024.25
2019-03-24T04:12:08.996Z,1024.21
2019-03-24T04:13:08.989Z,1024.19
2019-03-24T04:14:08.981Z,1024.22
2019-03-24T04:15:08.971Z,1024.18
2019-03-24T04:16:08.963Z,1024.18
2019-03-24T04:17:08.954Z,1024.21
2019-03-24T04:18:08.940Z,1024.22
2019-03-24T04:19:08.933Z,1024.15
2019-03-24T04:20:08.927Z,1024.17
2019-03-24T04:21:08.918Z,1024.16
2019-03-24T04:22:08.908Z,1024.17
2019-03-24T04:23:08.898Z,1024.13
2019-03-24T04:24:08.889Z,1024.19
2019-03-24T04:25:08.884Z,1024.19
2019-03-24T04:26:08.871Z,1024.18
2019-03-24T04:27:08.925Z,1024.19
2019-03-24T04:28:08.853Z,1024.14
2019-03-24T04:29:08.841Z,1024.21
2019-03-24T04:30:08.860Z,1024.25
2019-03-24T04:31:08.827Z,1024.21
2019-03-24T04:32:08.819Z,1024.24
2019-03-24T04:33:08.809Z,1024.22
2019-03-24T04:34:08.798Z,1024.24
2019-03-24T04:35:08.792Z,1024.23
2019-03-24T04:36:08.779Z,1024.25
2019-03-24T04:37:08.771Z,1024.31
2019-03-24T04:38:08.760Z,1024.31
2019-03-24T04:39:08.752Z,1024.31
2019-03-24T04:40:08.742Z,1024.33
2019-03-24T04:41:08.734Z,1024.34
2019-03-24T04:42:08.725Z,1024.36
2019-03-24T04:43:08.720Z,1024.31
2019-03-24T04:44:08.704Z,1024.30
2019-03-24T04:45:08.699Z,1024.26
2019-03-24T04:46:08.689Z,1024.27
2019-03-24T04:47:16.340Z,1024.25
2019-03-24T04:48:08.669Z,1024.25
2019-03-24T04:49:08.662Z,1024.20
2019-03-24T04:50:08.659Z,1024.21
2019-03-24T04:51:08.643Z,1024.22
2019-03-24T04:52:08.633Z,1024.17
2019-03-24T04:53:08.627Z,1024.14
2019-03-24T04:54:08.615Z,1024.14
2019-03-24T04:55:08.605Z,1024.16
2019-03-24T04:56:08.598Z,1024.12
2019-03-24T04:57:08.586Z,1024.13
2019-03-24T04:58:08.577Z,1024.13
2019-03-24T04:59:08.568Z,1024.10
2019-03-24T05:00:08.560Z,1024.10
2019-03-24T05:01:08.554Z,1024.07
2019-03-24T05:02:08.540Z,1024.02
2019-03-24T05:03:08.530Z,1024.03
2019-03-24T05:04:08.525Z,1024.03
2019-03-24T05:05:08.522Z,1024.03
2019-03-24T05:06:08.506Z,1024.05
2019-03-24T05:07:08.498Z,1024.06
2019-03-24T05:08:08.489Z,1024.02
2019-03-24T05:09:08.477Z,1024.04
2019-03-24T05:10:08.474Z,1024.02
2019-03-24T05:11:08.462Z,1024.05
2019-03-24T05:12:08.447Z,1024.00
2019-03-24T05:13:08.484Z,1023.99
2019-03-24T05:14:08.430Z,1024.02
2019-03-24T05:15:08.422Z,1024.01
2019-03-24T05:16:08.410Z,1023.98
2019-03-24T05:17:08.400Z,1023.97
2019-03-24T05:18:08.392Z,1023.93
2019-03-24T05:19:08.382Z,1023.95
2019-03-24T05:20:08.372Z,1023.93
2019-03-24T05:21:08.362Z,1023.93
2019-03-24T05:22:08.354Z,1023.95
2019-03-24T05:23:08.357Z,1023.97
2019-03-24T05:24:08.335Z,1023.99
2019-03-24T05:25:08.324Z,1023.98
2019-03-24T05:26:08.318Z,1024.00
2019-03-24T05:27:08.306Z,1023.98
2019-03-24T05:28:08.298Z,1024.00
2019-03-24T05:29:08.289Z,1024.02
2019-03-24T05:30:08.279Z,1024.02
2019-03-24T05:31:08.267Z,1024.02
2019-03-24T05:32:08.259Z,1024.01
2019-03-24T05:33:08.253Z,1024.05
2019-03-24T05:34:08.241Z,1024.01
2019-03-24T05:35:08.233Z,1024.01
2019-03-24T05:36:08.224Z,1024.03
2019-03-24T05:37:08.212Z,1024.03
2019-03-24T05:38:08.203Z,1023.99
2019-03-24T05:39:08.196Z,1023.97
2019-03-24T05:40:08.184Z,1023.99
2019-03-24T05:41:08.178Z,1024.02
2019-03-24T05:42:08.166Z,1024.04
2019-03-24T05:43:08.160Z,1023.99
2019-03-24T05:44:08.166Z,1024.00
2019-03-24T05:45:08.180Z,1023.96
2019-03-24T05:46:08.174Z,1024.02
2019-03-24T05:47:08.188Z,1024.02
2019-03-24T05:48:08.144Z,1024.00
2019-03-24T05:49:08.105Z,1024.04
2019-03-24T05:50:08.095Z,1024.05
2019-03-24T05:51:08.087Z,1024.04
2019-03-24T05:52:08.075Z,1024.05
2019-03-24T05:53:08.069Z,1024.02
2019-03-24T05:54:08.059Z,1024.00
2019-03-24T05:55:08.047Z,1024.02
2019-03-24T05:56:08.040Z,1024.01
2019-03-24T05:57:08.032Z,1024.02
2019-03-24T05:58:08.023Z,1023.99
2019-03-24T05:59:08.014Z,1023.97
2019-03-24T06:00:08.006Z,1023.98
2019-03-24T06:01:07.998Z,1024.01
2019-03-24T06:02:07.991Z,1023.97
2019-03-24T06:03:07.984Z,1023.96
2019-03-24T06:04:07.977Z,1023.94
2019-03-24T06:05:07.968Z,1023.95
2019-03-24T06:06:07.957Z,1023.97
2019-03-24T06:07:07.949Z,1023.96
2019-03-24T06:08:07.944Z,1023.97
2019-03-24T06:09:07.936Z,1023.97
2019-03-24T06:10:07.930Z,1023.97
2019-03-24T06:11:07.919Z,1023.97
2019-03-24T06:12:07.910Z,1023.98
2019-03-24T06:13:07.905Z,1023.95
2019-03-24T06:14:07.900Z,1023.99
2019-03-24T06:15:07.890Z,1023.99
2019-03-24T06:16:07.882Z,1023.98
2019-03-24T06:17:07.872Z,1023.99
2019-03-24T06:18:07.864Z,1023.96
2019-03-24T06:19:07.860Z,1023.94
2019-03-24T06:20:07.851Z,1023.94
2019-03-24T06:21:07.842Z,1023.95
2019-03-24T06:22:07.836Z,1023.93
2019-03-24T06:23:07.828Z,1023.97
2019-03-24T06:24:07.820Z,1023.90
2019-03-24T06:25:07.817Z,1023.93
2019-03-24T06:26:07.807Z,1023.90
2019-03-24T06:27:07.797Z,1023.89
2019-03-24T06:28:07.792Z,1023.89
2019-03-24T06:29:07.784Z,1023.92
2019-03-24T06:30:07.777Z,1023.92
2019-03-24T06:31:07.773Z,1023.90
2019-03-24T06:32:07.766Z,1023.88
2019-03-24T06:33:07.753Z,1023.91
2019-03-24T06:34:07.753Z,1023.88
2019-03-24T06:35:07.740Z,1023.87
2019-03-24T06:36:07.732Z,1023.85
2019-03-24T06:37:07.732Z,1023.87
2019-03-24T06:38:07.717Z,1023.86
2019-03-24T06:39:07.716Z,1023.81
2019-03-24T06:40:07.704Z,1023.80
2019-03-24T06:41:07.697Z,1023.80
2019-03-24T06:42:07.696Z,1023.82
2019-03-24T06:43:07.682Z,1023.83
2019-03-24T06:44:07.681Z,1023.85
2019-03-24T06:45:07.669Z,1023.83
2019-03-24T06:46:07.663Z,1023.78
2019-03-24T06:47:07.656Z,1023.78
2019-03-24T06:48:07.645Z,1023.82
2019-03-24T06:49:07.639Z,1023.78
2019-03-24T06:50:07.642Z,1023.76
2019-03-24T06:51:07.633Z,1023.75
2019-03-24T06:52:07.620Z,1023.73
2019-03-24T06:53:07.614Z,1023.73
2019-03-24T06:54:07.606Z,1023.75
2019-03-24T06:55:07.598Z,1023.76
2019-03-24T06:56:07.590Z,1023.74
2019-03-24T06:57:07.583Z,1023.77
2019-03-24T06:58:07.576Z,1023.76
2019-03-24T06:59:07.569Z,1023.75
2019-03-24T07:00:07.563Z,1023.74
2019-03-24T07:01:07.556Z,1023.69
2019-03-24T07:02:07.552Z,1023.74
2019-03-24T07:03:07.542Z,1023.73
2019-03-24T07:04:07.535Z,1023.74
2019-03-24T07:05:07.529Z,1023.73
2019-03-24T07:06:07.524Z,1023.77
2019-03-24T07:07:07.517Z,1023.75
2019-03-24T07:08:07.505Z,1023.84
2019-03-24T07:09:07.498Z,1023.83
2019-03-24T07:10:07.490Z,1023.81
2019-03-24T07:11:13.383Z,1023.81
2019-03-24T07:12:07.480Z,1023.79
2019-03-24T07:13:07.470Z,1023.80
2019-03-24T07:14:07.463Z,1023.83
2019-03-24T07:15:07.461Z,1023.80
2019-03-24T07:16:07.455Z,1023.79
2019-03-24T07:17:07.444Z,1023.72
2019-03-24T07:18:08.748Z,1023.81
2019-03-24T07:19:07.430Z,1023.82
2019-03-24T07:20:07.422Z,1023.79
2019-03-24T07:21:07.422Z,1023.81
2019-03-24T07:22:07.429Z,1023.81
2019-03-24T07:23:07.403Z,1023.80
2019-03-24T07:24:07.397Z,1023.78
2019-03-24T07:25:07.393Z,1023.76
2019-03-24T07:26:07.383Z,1023.74
2019-03-24T07:27:07.376Z,1023.72
2019-03-24T07:28:07.372Z,1023.73
2019-03-24T07:29:07.363Z,1023.77
2019-03-24T07:30:07.355Z,1023.78
2019-03-24T07:31:07.349Z,1023.72
2019-03-24T07:32:07.343Z,1023.73
2019-03-24T07:33:07.335Z,1023.67
2019-03-24T07:34:07.368Z,1023.66
2019-03-24T07:35:07.341Z,1023.65
2019-03-24T07:36:07.314Z,1023.68
2019-03-24T07:37:07.305Z,1023.65
2019-03-24T07:38:07.300Z,1023.69
2019-03-24T07:39:07.293Z,1023.63
2019-03-24T07:40:07.285Z,1023.64
2019-03-24T07:41:07.283Z,1023.67
2019-03-24T07:42:07.282Z,1023.69
2019-03-24T07:43:07.265Z,1023.69
2019-03-24T07:44:07.257Z,1023.69
2019-03-24T07:45:07.253Z,1023.66
2019-03-24T07:46:07.249Z,1023.67
2019-03-24T07:47:07.238Z,1023.67
2019-03-24T07:48:07.231Z,1023.69
2019-03-24T07:49:07.225Z,1023.73
2019-03-24T07:50:07.221Z,1023.78
2019-03-24T07:51:07.209Z,1023.76
2019-03-24T07:52:07.204Z,1023.74
2019-03-24T07:53:07.201Z,1023.74
2019-03-24T07:54:07.194Z,1023.74
2019-03-24T07:55:07.187Z,1023.71
2019-03-24T07:56:07.178Z,1023.72
2019-03-24T07:57:07.173Z,1023.71
2019-03-24T07:58:07.164Z,1023.71
2019-03-24T07:59:07.159Z,1023.69
2019-03-24T08:00:07.151Z,1023.68
2019-03-24T08:01:07.148Z,1023.73
2019-03-24T08:02:07.140Z,1023.67
2019-03-24T08:03:07.131Z,1023.68
2019-03-24T08:04:07.123Z,1023.69
2019-03-24T08:05:07.121Z,1023.69
2019-03-24T08:06:07.113Z,1023.70
2019-03-24T08:07:07.104Z,1023.73
2019-03-24T08:08:07.095Z,1023.74
2019-03-24T08:09:07.088Z,1023.76
2019-03-24T08:10:07.086Z,1023.68
2019-03-24T08:11:07.078Z,1023.69
2019-03-24T08:12:07.070Z,1023.68
2019-03-24T08:13:07.064Z,1023.70
2019-03-24T08:14:07.059Z,1023.68
2019-03-24T08:15:07.050Z,1023.66
2019-03-24T08:16:07.042Z,1023.63
2019-03-24T08:17:07.036Z,1023.59
2019-03-24T08:18:07.028Z,1023.59
2019-03-24T08:19:07.023Z,1023.58
2019-03-24T08:20:07.014Z,1023.58
2019-03-24T08:21:07.012Z,1023.55
2019-03-24T08:22:07.001Z,1023.52
2019-03-24T08:23:06.995Z,1023.47
2019-03-24T08:24:06.992Z,1023.44
2019-03-24T08:25:06.985Z,1023.34
2019-03-24T08:26:06.974Z,1023.31
2019-03-24T08:27:06.966Z,1023.31
2019-03-24T08:28:06.963Z,1023.30
2019-03-24T08:29:06.956Z,1023.26
2019-03-24T08:30:06.954Z,1023.24
2019-03-24T08:31:06.942Z,1023.22
2019-03-24T08:32:06.935Z,1023.17
2019-03-24T08:33:06.926Z,1023.21
2019-03-24T08:34:06.922Z,1023.14
2019-03-24T08:35:06.916Z,1023.15
2019-03-24T08:36:06.908Z,1023.14
2019-03-24T08:37:06.903Z,1023.17
2019-03-24T08:38:06.898Z,1023.18
2019-03-24T08:39:06.889Z,1023.17
2019-03-24T08:40:06.886Z,1023.20
2019-03-24T08:41:06.872Z,1023.15
2019-03-24T08:42:06.868Z,1023.13
2019-03-24T08:43:06.858Z,1023.09
2019-03-24T08:44:06.855Z,1023.11
2019-03-24T08:45:06.846Z,1023.10
2019-03-24T08:46:06.839Z,1023.07
2019-03-24T08:47:06.830Z,1023.06
2019-03-24T08:48:06.824Z,1023.08
2019-03-24T08:49:06.822Z,1023.10
2019-03-24T08:50:06.812Z,1023.06
2019-03-24T08:51:06.807Z,1023.06
2019-03-24T08:52:06.800Z,1023.08
2019-03-24T08:53:06.789Z,1023.05
2019-03-24T08:54:06.784Z,1023.05
2019-03-24T08:55:06.778Z,1023.02
2019-03-24T08:56:06.768Z,1023.01
2019-03-24T08:57:06.764Z,1022.98
2019-03-24T08:58:06.759Z,1022.98
2019-03-24T08:59:06.802Z,1022.96
2019-03-24T09:00:06.744Z,1022.90
2019-03-24T09:01:06.736Z,1022.80
2019-03-24T09:02:06.729Z,1022.74
2019-03-24T09:03:06.725Z,1022.68
2019-03-24T09:04:06.715Z,1022.65
2019-03-24T09:05:06.711Z,1022.65
2019-03-24T09:06:06.702Z,1022.61
2019-03-24T09:07:06.689Z,1022.62
2019-03-24T09:08:06.689Z,1022.66
2019-03-24T09:09:06.683Z,1022.60
2019-03-24T09:10:06.675Z,1022.66
2019-03-24T09:11:06.669Z,1022.66
2019-03-24T09:12:06.660Z,1022.65
2019-03-24T09:13:06.657Z,1022.64
2019-03-24T09:14:06.649Z,1022.65
2019-03-24T09:15:06.643Z,1022.64
2019-03-24T09:16:06.637Z,1022.63
2019-03-24T09:17:06.637Z,1022.60
2019-03-24T09:18:06.624Z,1022.60
2019-03-24T09:19:06.635Z,1022.58
2019-03-24T09:20:06.603Z,1022.57
2019-03-24T09:21:06.599Z,1022.49
2019-03-24T09:22:06.592Z,1022.51
2019-03-24T09:23:06.592Z,1022.49
2019-03-24T09:24:06.583Z,1022.47
2019-03-24T09:25:06.572Z,1022.46
2019-03-24T09:26:06.578Z,1022.46
2019-03-24T09:27:06.567Z,1022.49
2019-03-24T09:28:08.981Z,1022.48
2019-03-24T09:29:06.603Z,1022.47
2019-03-24T09:30:06.539Z,1022.50
2019-03-24T09:31:06.534Z,1022.49
2019-03-24T09:32:06.525Z,1022.41
2019-03-24T09:33:06.517Z,1022.41
2019-03-24T09:34:06.511Z,1022.40
2019-03-24T09:35:06.515Z,1022.35
2019-03-24T09:36:06.497Z,1022.40
2019-03-24T09:37:06.491Z,1022.36
2019-03-24T09:38:06.484Z,1022.35
2019-03-24T09:39:06.476Z,1022.37
2019-03-24T09:40:06.474Z,1022.36
2019-03-24T09:41:06.461Z,1022.32
2019-03-24T09:42:06.457Z,1022.40
2019-03-24T09:43:06.451Z,1022.37
2019-03-24T09:44:06.449Z,1022.34
2019-03-24T09:45:06.437Z,1022.31
2019-03-24T09:46:06.420Z,1022.30
2019-03-24T09:47:06.421Z,1022.30
2019-03-24T09:48:06.415Z,1022.31
2019-03-24T09:49:06.407Z,1022.29
2019-03-24T09:50:06.402Z,1022.29
2019-03-24T09:51:06.448Z,1022.33
2019-03-24T09:52:06.388Z,1022.32
2019-03-24T09:53:06.390Z,1022.30
2019-03-24T09:54:06.365Z,1022.29
2019-03-24T09:55:06.369Z,1022.23
2019-03-24T09:56:06.363Z,1022.23
2019-03-24T09:57:06.354Z,1022.24
2019-03-24T09:58:06.352Z,1022.22
2019-03-24T09:59:06.342Z,1022.22
2019-03-24T10:00:06.336Z,1022.20
2019-03-24T10:01:06.344Z,1022.19
2019-03-24T10:02:06.322Z,1022.18
2019-03-24T10:03:06.316Z,1022.13
2019-03-24T10:04:06.313Z,1022.04
2019-03-24T10:05:06.328Z,1022.05
2019-03-24T10:06:06.311Z,1022.03
2019-03-24T10:07:06.289Z,1022.07
2019-03-24T10:08:06.284Z,1022.02
2019-03-24T10:09:06.276Z,1021.98
2019-03-24T10:10:06.269Z,1021.96
2019-03-24T10:11:06.265Z,1021.94
2019-03-24T10:12:06.252Z,1021.92
2019-03-24T10:13:06.253Z,1021.91
2019-03-24T10:14:06.244Z,1021.93
2019-03-24T10:15:06.241Z,1021.90
2019-03-24T10:16:06.232Z,1021.90
2019-03-24T10:17:06.230Z,1021.90
2019-03-24T10:18:06.224Z,1021.88
2019-03-24T10:19:14.055Z,1021.88
2019-03-24T10:20:06.632Z,1021.83
2019-03-24T10:21:06.217Z,1021.85
2019-03-24T10:22:06.193Z,1021.82
2019-03-24T10:23:06.184Z,1021.81
2019-03-24T10:24:07.951Z,1021.83
2019-03-24T10:25:06.172Z,1021.78
2019-03-24T10:26:06.597Z,1021.78
2019-03-24T10:27:06.161Z,1021.78
2019-03-24T10:28:06.156Z,1021.78
2019-03-24T10:29:06.148Z,1021.77
2019-03-24T10:30:06.146Z,1021.76
2019-03-24T10:31:06.140Z,1021.72
2019-03-24T10:32:06.129Z,1021.75
2019-03-24T10:33:06.125Z,1021.76
2019-03-24T10:34:06.121Z,1021.72
2019-03-24T10:35:06.114Z,1021.72
2019-03-24T10:36:06.106Z,1021.70
2019-03-24T10:37:06.102Z,1021.69
2019-03-24T10:38:06.093Z,1021.66
2019-03-24T10:39:06.088Z,1021.64
2019-03-24T10:40:06.080Z,1021.68
2019-03-24T10:41:06.102Z,1021.62
2019-03-24T10:42:06.069Z,1021.63
2019-03-24T10:43:06.061Z,1021.63
2019-03-24T10:44:06.058Z,1021.58
2019-03-24T10:45:06.097Z,1021.51
2019-03-24T10:46:06.046Z,1021.51
2019-03-24T10:47:06.091Z,1021.51
2019-03-24T10:48:06.035Z,1021.44
2019-03-24T10:49:06.029Z,1021.43
2019-03-24T10:50:06.022Z,1021.42
2019-03-24T10:51:06.018Z,1021.43
2019-03-24T10:52:06.013Z,1021.42
2019-03-24T10:53:06.004Z,1021.46
2019-03-24T10:54:06.130Z,1021.42
2019-03-24T10:55:05.995Z,1021.43
2019-03-24T10:56:05.987Z,1021.37
2019-03-24T10:57:05.983Z,1021.36
2019-03-24T10:58:05.984Z,1021.35
2019-03-24T10:59:05.972Z,1021.34
2019-03-24T11:00:05.967Z,1021.34
2019-03-24T11:01:06.092Z,1021.33
2019-03-24T11:02:05.957Z,1021.32
2019-03-24T11:03:05.951Z,1021.26
2019-03-24T11:04:05.945Z,1021.23
2019-03-24T11:05:06.086Z,1021.16
2019-03-24T11:06:05.935Z,1021.15
2019-03-24T11:07:05.928Z,1021.11
2019-03-24T11:08:05.922Z,1021.07
2019-03-24T11:09:05.917Z,1021.08
2019-03-24T11:10:05.910Z,1021.04
2019-03-24T11:11:06.088Z,1021.07
2019-03-24T11:12:05.899Z,1021.04
2019-03-24T11:13:05.919Z,1021.07
2019-03-24T11:14:05.887Z,1021.02
2019-03-24T11:15:06.093Z,1021.02
2019-03-24T11:16:05.877Z,1020.96
2019-03-24T11:17:06.100Z,1021.03
2019-03-24T11:18:05.872Z,1021.00
2019-03-24T11:19:05.861Z,1020.98
2019-03-24T11:20:05.866Z,1021.03
2019-03-24T11:21:05.854Z,1021.00
2019-03-24T11:22:05.845Z,1020.98
2019-03-24T11:23:06.124Z,1020.98
2019-03-24T11:24:05.852Z,1021.01
2019-03-24T11:25:05.822Z,1020.95
2019-03-24T11:26:05.825Z,1020.93
2019-03-24T11:27:05.824Z,1020.92
2019-03-24T11:28:05.818Z,1020.94
2019-03-24T11:29:05.816Z,1020.92
2019-03-24T11:30:05.807Z,1020.87
2019-03-24T11:31:05.796Z,1020.87
2019-03-24T11:32:05.829Z,1020.84
2019-03-24T11:33:05.790Z,1020.84
2019-03-24T11:34:05.786Z,1020.81
2019-03-24T11:35:05.784Z,1020.80
2019-03-24T11:36:05.778Z,1020.85
2019-03-24T11:37:05.769Z,1020.84
2019-03-24T11:38:05.767Z,1020.82
2019-03-24T11:39:06.097Z,1020.82
2019-03-24T11:40:05.755Z,1020.82
2019-03-24T11:41:05.750Z,1020.83
2019-03-24T11:42:05.742Z,1020.74
2019-03-24T11:43:05.742Z,1020.78
2019-03-24T11:44:05.734Z,1020.74
2019-03-24T11:45:05.731Z,1020.72
2019-03-24T11:46:05.728Z,1020.74
2019-03-24T11:47:05.724Z,1020.73
2019-03-24T11:48:05.719Z,1020.73
2019-03-24T11:49:05.708Z,1020.74
2019-03-24T11:50:05.704Z,1020.73
2019-03-24T11:51:05.703Z,1020.64
2019-03-24T11:52:05.694Z,1020.69
2019-03-24T11:53:05.690Z,1020.62
2019-03-24T11:54:05.687Z,1020.59
2019-03-24T11:55:05.682Z,1020.57
2019-03-24T11:56:05.675Z,1020.53
2019-03-24T11:57:05.669Z,1020.53
2019-03-24T11:58:06.379Z,1020.48
2019-03-24T11:59:05.665Z,1020.50
2019-03-24T12:00:05.656Z,1020.52
2019-03-24T12:01:05.656Z,1020.47
2019-03-24T12:02:05.648Z,1020.49
2019-03-24T12:03:05.641Z,1020.48
2019-03-24T12:04:05.635Z,1020.44
2019-03-24T12:05:05.628Z,1020.43